Terminal Aerodrome Forecast
Issued by NWS Wakefield, VA

Home | Current Version | Previous Version | Text Only | Print | Product List | Glossary On
Versions: 1 2 3 4 5 6 7 8 9 10 11 12 13 14 15 16 17
000
FTUS41 KAKQ 231307 AAA
TAFSBY
TAF AMD
KSBY 231307Z 2313/2412 21011KT 5SM -RA SCT035 OVC060
     FM231700 22015G24KT 3SM -RA BKN035 BKN050
     FM240000 22011KT P6SM VCSH BKN150
     FM240200 22010KT P6SM BKN150
     FM240900 21013G20KT 4SM -RA BKN070=

USA.gov is the U.S. government's official web portal to all federal, state and local government web resources and services.